createdAt,value
2023-09-03T00:07:30.610Z,3.223
2023-09-03T00:23:13.464Z,3.221
2023-09-03T00:38:56.009Z,3.221
2023-09-03T00:54:38.226Z,3.221
2023-09-03T01:10:20.558Z,3.221
2023-09-03T01:26:03.698Z,3.221
2023-09-03T01:41:46.138Z,3.221
2023-09-03T01:57:28.321Z,3.221
2023-09-03T02:13:10.393Z,3.221
2023-09-03T02:28:53.347Z,3.221
2023-09-03T02:44:35.606Z,3.221
2023-09-03T03:00:17.837Z,3.221
2023-09-03T03:16:00.784Z,3.221
2023-09-03T03:31:43.659Z,3.221
2023-09-03T03:47:26.263Z,3.221
2023-09-03T03:48:14.644Z,3.218
2023-09-03T04:03:56.864Z,3.221
2023-09-03T04:19:39.618Z,3.221
2023-09-03T04:35:21.722Z,3.223
2023-09-03T04:51:04.217Z,3.223
2023-09-03T05:06:47.218Z,3.221
2023-09-03T05:22:29.672Z,3.22
2023-09-03T05:38:12.423Z,3.223
2023-09-03T05:53:54.786Z,3.224
2023-09-03T06:09:36.892Z,3.231
2023-09-03T06:25:19.817Z,3.242
2023-09-03T06:41:02.644Z,3.246
2023-09-03T06:56:45.332Z,3.25
2023-09-03T07:12:27.834Z,3.263
2023-09-03T07:28:10.221Z,3.322
2023-09-03T07:43:52.681Z,3.283
2023-09-03T07:59:35.193Z,3.272
2023-09-03T08:15:17.585Z,3.264
2023-09-03T08:30:59.655Z,3.259
2023-09-03T08:46:42.532Z,3.253
2023-09-03T09:02:25.116Z,3.249
2023-09-03T09:18:07.818Z,3.245
2023-09-03T09:33:50.914Z,3.241
2023-09-03T09:49:33.323Z,3.426
2023-09-03T10:05:15.867Z,3.398
2023-09-03T10:20:57.934Z,3.38
2023-09-03T10:36:39.960Z,3.364
2023-09-03T10:52:22.159Z,3.35
2023-09-03T11:08:04.343Z,3.339
2023-09-03T11:23:46.648Z,3.328
2023-09-03T11:39:28.543Z,3.306
2023-09-03T11:55:10.702Z,3.296
2023-09-03T12:10:52.896Z,3.288
2023-09-03T12:26:34.935Z,3.281
2023-09-03T12:42:17.575Z,3.272
2023-09-03T12:58:00.381Z,3.268
2023-09-03T13:13:42.814Z,3.263
2023-09-03T13:29:25.525Z,3.257
2023-09-03T13:45:08.149Z,3.253
2023-09-03T14:00:51.022Z,3.249
2023-09-03T14:16:33.013Z,3.245
2023-09-03T14:32:15.520Z,3.242
2023-09-03T14:47:58.100Z,3.31
2023-09-03T15:03:40.323Z,3.299
2023-09-03T15:19:23.122Z,3.29
2023-09-03T15:35:05.135Z,3.282
2023-09-03T15:50:47.345Z,3.275
2023-09-03T16:06:29.517Z,3.268
2023-09-03T16:22:11.862Z,3.264
2023-09-03T16:37:54.564Z,3.259
2023-09-03T16:53:37.298Z,3.253
2023-09-03T17:09:20.072Z,3.249
2023-09-03T17:25:02.499Z,3.245
2023-09-03T17:40:45.362Z,3.242
2023-09-03T17:56:27.655Z,3.238
2023-09-03T18:12:09.931Z,3.235
2023-09-03T18:27:52.017Z,3.232
2023-09-03T18:43:34.404Z,3.229
2023-09-03T18:59:16.538Z,3.228
2023-09-03T19:14:59.043Z,3.227
2023-09-03T19:30:41.542Z,3.218
2023-09-03T19:46:23.727Z,3.217
2023-09-03T20:02:05.836Z,3.217
2023-09-03T20:49:13.933Z,3.214
2023-09-03T21:04:56.751Z,3.214
2023-09-03T21:20:38.878Z,3.214
2023-09-03T21:36:21.828Z,3.213
2023-09-03T21:52:04.510Z,3.213
2023-09-03T22:07:47.522Z,3.213
2023-09-03T22:23:30.444Z,3.212
2023-09-03T22:39:13.479Z,3.212
2023-09-03T22:54:56.223Z,3.212
2023-09-03T23:10:38.310Z,3.213
2023-09-03T23:26:21.043Z,3.212
2023-09-03T23:42:04.038Z,3.213
2023-09-03T23:57:46.123Z,3.213
